createdAt,value
2024-01-19T00:00:33.279Z,-2.42
2024-01-19T00:01:35.695Z,-2.43
2024-01-19T00:02:38.025Z,-2.49
2024-01-19T00:03:40.281Z,-2.48
2024-01-19T00:04:42.502Z,-2.39
2024-01-19T00:05:44.903Z,-2.37
2024-01-19T00:06:48.242Z,-2.35
2024-01-19T00:07:50.515Z,-2.32
2024-01-19T00:08:52.866Z,-2.22
2024-01-19T00:09:55.161Z,-2.14
2024-01-19T00:10:57.383Z,-2.28
2024-01-19T00:11:59.629Z,-2.37
2024-01-19T00:13:01.993Z,-2.29
2024-01-19T00:14:04.284Z,-2.37
2024-01-19T00:15:10.340Z,-2.45
2024-01-19T00:16:12.645Z,-2.27
2024-01-19T00:17:14.863Z,-2.15
2024-01-19T00:18:17.371Z,-2.06
2024-01-19T00:19:19.758Z,-1.96
2024-01-19T00:20:22.051Z,-1.88
2024-01-19T00:21:25.134Z,-1.87
2024-01-19T00:22:27.485Z,-1.83
2024-01-19T00:23:29.840Z,-1.80
2024-01-19T00:24:32.129Z,-1.81
2024-01-19T00:25:34.346Z,-1.76
2024-01-19T00:26:36.631Z,-1.71
2024-01-19T00:27:39.128Z,-1.65
2024-01-19T00:28:41.377Z,-1.81
2024-01-19T00:29:43.624Z,-1.90
2024-01-19T00:30:45.894Z,-2.16
2024-01-19T00:31:49.263Z,-2.15
2024-01-19T00:32:51.655Z,-2.07
2024-01-19T00:33:54.067Z,-2.09
2024-01-19T00:34:56.455Z,-2.08
2024-01-19T00:35:58.832Z,-1.98
2024-01-19T00:37:01.059Z,-2.00
2024-01-19T00:38:03.451Z,-1.93
2024-01-19T00:39:06.430Z,-1.91
2024-01-19T00:40:12.989Z,-1.95
2024-01-19T00:41:16.632Z,-1.97
2024-01-19T00:42:18.924Z,-1.89
2024-01-19T00:43:21.115Z,-1.89
2024-01-19T00:44:23.361Z,-1.91
2024-01-19T00:45:25.801Z,-1.98
2024-01-19T00:46:29.036Z,-2.02
2024-01-19T00:47:31.398Z,-2.01
2024-01-19T00:48:33.776Z,-2.00
2024-01-19T00:49:36.124Z,-2.03
2024-01-19T00:50:38.494Z,-1.97
2024-01-19T00:51:40.904Z,-1.96
2024-01-19T00:52:43.100Z,-1.97
2024-01-19T00:53:45.712Z,-1.98
2024-01-19T00:54:47.977Z,-2.05
2024-01-19T00:55:50.340Z,-2.09
2024-01-19T00:56:52.650Z,-2.09
2024-01-19T00:57:54.939Z,-2.09
2024-01-19T00:58:57.135Z,-2.12
2024-01-19T00:59:59.654Z,-2.08
2024-01-19T01:01:02.181Z,-2.05
2024-01-19T01:02:04.890Z,-2.00
2024-01-19T01:03:07.271Z,-2.05
2024-01-19T01:04:09.675Z,-2.05
2024-01-19T01:05:13.101Z,-1.97
2024-01-19T01:06:15.641Z,-1.98
2024-01-19T01:07:17.941Z,-1.95
2024-01-19T01:08:20.244Z,-2.01
2024-01-19T01:09:22.473Z,-2.03
2024-01-19T01:10:24.744Z,-2.07
2024-01-19T01:11:28.813Z,-2.07
2024-01-19T01:12:31.189Z,-2.01
2024-01-19T01:13:33.881Z,-2.06
2024-01-19T01:14:36.157Z,-2.09
2024-01-19T01:15:38.380Z,-2.08
2024-01-19T01:16:40.580Z,-1.99
2024-01-19T01:17:43.073Z,-1.82
2024-01-19T01:18:45.469Z,-1.71
2024-01-19T01:19:50.238Z,-1.68
2024-01-19T01:20:52.693Z,-1.64
2024-01-19T01:21:55.148Z,-1.53
2024-01-19T01:22:57.389Z,-1.51
2024-01-19T01:23:59.752Z,-1.46
2024-01-19T01:25:02.286Z,-1.42
2024-01-19T01:26:04.832Z,-1.34
2024-01-19T01:27:07.076Z,-1.37
2024-01-19T01:28:09.296Z,-1.31
2024-01-19T01:29:11.915Z,-1.35
2024-01-19T01:30:14.200Z,-1.42
2024-01-19T01:31:16.450Z,-1.44
2024-01-19T01:32:18.867Z,-1.47
2024-01-19T01:33:22.005Z,-1.46
2024-01-19T01:34:24.488Z,-1.45
2024-01-19T01:35:26.946Z,-1.28
2024-01-19T01:36:29.315Z,-1.23
2024-01-19T01:37:31.964Z,-1.23
2024-01-19T01:38:34.329Z,-1.33
2024-01-19T01:39:36.678Z,-1.34
2024-01-19T01:40:38.997Z,-1.39
2024-01-19T01:41:45.549Z,-1.36
2024-01-19T01:42:47.928Z,-1.37
2024-01-19T01:43:50.187Z,-1.39
2024-01-19T01:44:52.623Z,-1.35
2024-01-19T01:45:55.057Z,-1.34
2024-01-19T01:46:57.365Z,-1.42
2024-01-19T01:48:00.368Z,-1.49
2024-01-19T01:49:02.945Z,-1.53
2024-01-19T01:50:06.554Z,-1.52
2024-01-19T01:51:10.078Z,-1.42
2024-01-19T01:52:12.521Z,-1.35
2024-01-19T01:53:16.593Z,-1.42
2024-01-19T01:54:19.560Z,-1.26
2024-01-19T01:55:22.452Z,-1.14
2024-01-19T01:56:24.690Z,-1.16
2024-01-19T01:57:27.054Z,-1.23
2024-01-19T02:01:36.422Z,-0.93
2024-01-19T02:02:39.281Z,-0.86
2024-01-19T02:03:42.131Z,-0.84
2024-01-19T02:04:44.338Z,-0.88
2024-01-19T02:05:47.105Z,-0.88
2024-01-19T02:06:49.704Z,-0.95
2024-01-19T02:07:52.212Z,-1.18
2024-01-19T02:08:55.693Z,-1.41
2024-01-19T02:09:58.969Z,-1.31
2024-01-19T02:11:01.248Z,-1.43
2024-01-19T02:12:04.733Z,-1.30
2024-01-19T02:13:07.167Z,-1.22
2024-01-19T02:14:11.574Z,-1.10
2024-01-19T02:15:24.644Z,-0.96
2024-01-19T02:16:26.878Z,-0.98
2024-01-19T02:17:29.197Z,-0.92
2024-01-19T02:18:31.588Z,-0.85
2024-01-19T02:19:36.576Z,-0.83
2024-01-19T02:20:38.984Z,-0.88
2024-01-19T02:21:41.397Z,-0.79
2024-01-19T02:22:44.801Z,-0.77
2024-01-19T02:24:16.738Z,-0.78
2024-01-19T02:25:19.425Z,-0.94
2024-01-19T02:26:23.078Z,-1.14
2024-01-19T02:27:26.385Z,-1.23
2024-01-19T02:28:28.675Z,-1.36
2024-01-19T02:29:31.066Z,-1.46
2024-01-19T02:30:34.682Z,-1.51
2024-01-19T02:31:37.209Z,-1.49
2024-01-19T02:32:39.642Z,-1.50
2024-01-19T02:33:41.992Z,-1.52
2024-01-19T02:34:47.103Z,-1.42
2024-01-19T02:35:49.544Z,-1.39
2024-01-19T02:36:51.980Z,-1.50
2024-01-19T02:37:54.292Z,-1.44
2024-01-19T02:38:56.666Z,-1.34
2024-01-19T02:39:59.187Z,-1.52
2024-01-19T02:41:01.482Z,-1.40
2024-01-19T02:42:03.871Z,-1.35
2024-01-19T02:43:06.152Z,-1.50
2024-01-19T02:44:08.529Z,-1.47
2024-01-19T02:45:10.817Z,-1.38
2024-01-19T02:46:15.703Z,-1.16
2024-01-19T02:47:18.116Z,-1.02
2024-01-19T02:48:20.639Z,-1.00
2024-01-19T02:49:23.040Z,-0.97
2024-01-19T02:50:25.609Z,-1.00
2024-01-19T02:51:27.814Z,-1.18
2024-01-19T02:52:30.161Z,-1.31
2024-01-19T02:53:33.173Z,-1.37
2024-01-19T02:54:35.466Z,-1.35
2024-01-19T02:55:37.668Z,-1.41
2024-01-19T02:56:39.980Z,-1.47
2024-01-19T02:57:42.288Z,-1.51
2024-01-19T02:58:44.616Z,-1.51
2024-01-19T02:59:46.930Z,-1.50
2024-01-19T03:02:13.623Z,-1.60
2024-01-19T03:03:15.984Z,-1.62
2024-01-19T03:04:18.213Z,-1.67
2024-01-19T03:05:20.603Z,-1.71
2024-01-19T03:06:24.685Z,-1.58
2024-01-19T03:07:26.953Z,-1.58
2024-01-19T03:08:29.232Z,-1.60
2024-01-19T03:09:31.483Z,-1.73
2024-01-19T03:10:33.714Z,-1.72
2024-01-19T03:11:36.078Z,-1.70
2024-01-19T03:12:38.370Z,-1.65
2024-01-19T03:13:40.697Z,-1.55
2024-01-19T03:14:42.980Z,-1.50
2024-01-19T03:15:45.223Z,-1.49
2024-01-19T03:16:47.414Z,-1.41
2024-01-19T03:17:49.691Z,-1.31
2024-01-19T03:18:56.085Z,-1.28
2024-01-19T03:19:58.350Z,-1.50
2024-01-19T03:21:00.879Z,-1.53
2024-01-19T03:22:03.104Z,-1.47
2024-01-19T03:23:06.933Z,-1.38
2024-01-19T03:24:09.310Z,-1.24
2024-01-19T03:25:11.620Z,-1.12
2024-01-19T03:26:15.171Z,-0.98
2024-01-19T03:27:17.557Z,-0.80
2024-01-19T03:28:19.831Z,-0.62
2024-01-19T03:29:23.964Z,-0.63
2024-01-19T03:30:26.356Z,-0.80
2024-01-19T03:31:28.590Z,-0.97
2024-01-19T03:32:31.061Z,-0.99
2024-01-19T03:33:33.406Z,-1.09
2024-01-19T03:34:36.307Z,-1.12
2024-01-19T03:35:38.748Z,-1.10
2024-01-19T03:36:40.969Z,-1.25
2024-01-19T03:37:43.173Z,-1.30
2024-01-19T03:38:46.329Z,-1.37
2024-01-19T03:39:48.659Z,-1.33
2024-01-19T03:40:50.960Z,-1.28
2024-01-19T03:41:53.342Z,-1.22
2024-01-19T03:42:55.667Z,-1.09
2024-01-19T03:43:57.915Z,-1.26
2024-01-19T03:45:00.225Z,-1.26
2024-01-19T03:46:02.588Z,-1.35
2024-01-19T03:47:04.890Z,-1.39
2024-01-19T03:48:07.335Z,-1.23
2024-01-19T03:49:09.650Z,-1.38
2024-01-19T03:50:12.120Z,-1.39
2024-01-19T03:51:14.435Z,-1.31
2024-01-19T03:52:17.357Z,-1.23
2024-01-19T03:53:19.706Z,-1.32
2024-01-19T03:54:22.021Z,-1.26
2024-01-19T03:55:24.332Z,-1.39
2024-01-19T03:56:26.696Z,-1.45
2024-01-19T03:57:28.980Z,-1.33
2024-01-19T03:58:31.147Z,-1.15
2024-01-19T03:59:34.146Z,-1.12
2024-01-19T04:00:39.051Z,-0.98
2024-01-19T04:01:41.253Z,-1.09
2024-01-19T04:02:43.692Z,-1.25
2024-01-19T04:03:46.631Z,-1.18
2024-01-19T04:04:49.573Z,-1.10
2024-01-19T04:05:51.996Z,-1.05
2024-01-19T04:06:54.351Z,-1.01
2024-01-19T04:07:56.588Z,-1.20
2024-01-19T04:08:59.018Z,-1.13
2024-01-19T04:10:01.371Z,-1.04
2024-01-19T04:11:03.717Z,-0.85
2024-01-19T04:12:16.694Z,-0.77
2024-01-19T04:13:18.939Z,-0.80
2024-01-19T04:14:21.355Z,-0.77
2024-01-19T04:15:23.707Z,-0.77
2024-01-19T04:16:25.963Z,-0.92
2024-01-19T04:17:28.289Z,-0.95
2024-01-19T04:18:30.871Z,-1.00
2024-01-19T04:19:33.309Z,-1.06
2024-01-19T04:20:35.780Z,-1.33
2024-01-19T04:21:38.116Z,-1.39
2024-01-19T04:22:43.381Z,-1.52
2024-01-19T04:23:48.708Z,-1.62
2024-01-19T04:24:50.965Z,-1.51
2024-01-19T04:25:53.197Z,-1.42
2024-01-19T04:26:55.558Z,-1.31
2024-01-19T04:27:58.232Z,-1.25
2024-01-19T04:29:00.468Z,-1.30
2024-01-19T04:30:03.027Z,-1.42
2024-01-19T04:31:06.576Z,-1.42
2024-01-19T04:32:08.774Z,-1.38
2024-01-19T04:33:11.514Z,-1.29
2024-01-19T04:34:14.078Z,-1.20
2024-01-19T04:35:16.362Z,-1.22
2024-01-19T04:36:19.156Z,-1.21
2024-01-19T04:37:21.917Z,-1.12
2024-01-19T04:38:24.135Z,-1.06
2024-01-19T04:39:26.447Z,-1.15
2024-01-19T04:40:28.698Z,-1.10
2024-01-19T04:41:33.334Z,-1.05
2024-01-19T04:42:35.662Z,-0.98
2024-01-19T04:43:37.926Z,-0.95
2024-01-19T04:44:40.666Z,-0.93
2024-01-19T04:45:42.999Z,-0.96
2024-01-19T04:46:45.292Z,-1.00
2024-01-19T04:47:47.662Z,-0.98
2024-01-19T04:48:50.086Z,-1.19
2024-01-19T04:49:52.594Z,-1.21
2024-01-19T04:50:54.882Z,-1.21
2024-01-19T04:51:57.641Z,-1.27
2024-01-19T04:53:00.329Z,-1.41
2024-01-19T04:54:02.713Z,-1.33
2024-01-19T04:55:05.344Z,-1.25
2024-01-19T04:56:08.221Z,-1.28
2024-01-19T04:57:10.595Z,-0.95
2024-01-19T04:58:12.986Z,-1.13
2024-01-19T04:59:15.481Z,-1.07
2024-01-19T05:00:17.923Z,-1.16
2024-01-19T05:01:20.187Z,-1.16
2024-01-19T05:02:22.579Z,-1.13
2024-01-19T05:03:24.817Z,-1.07
2024-01-19T05:04:27.189Z,-1.21
2024-01-19T05:05:30.513Z,-1.33
2024-01-19T05:06:32.930Z,-1.24
2024-01-19T05:07:35.461Z,-1.19
2024-01-19T05:08:37.747Z,-1.40
2024-01-19T05:09:40.145Z,-1.32
2024-01-19T05:10:42.374Z,-1.47
2024-01-19T05:11:44.622Z,-1.57
2024-01-19T05:12:46.911Z,-1.71
2024-01-19T05:13:49.229Z,-1.82
2024-01-19T05:14:51.773Z,-1.71
2024-01-19T05:15:54.007Z,-1.65
2024-01-19T05:16:56.288Z,-1.58
2024-01-19T05:17:59.133Z,-1.62
2024-01-19T05:19:01.486Z,-1.76
2024-01-19T05:20:04.134Z,-1.62
2024-01-19T05:21:07.380Z,-1.55
2024-01-19T05:22:09.755Z,-1.50
2024-01-19T05:23:11.978Z,-1.52
2024-01-19T05:24:14.217Z,-1.60
2024-01-19T05:25:19.650Z,-1.74
2024-01-19T05:26:22.190Z,-1.81
2024-01-19T05:27:24.510Z,-1.88
2024-01-19T05:28:26.827Z,-1.93
2024-01-19T05:29:29.216Z,-1.97
2024-01-19T05:30:31.482Z,-2.03
2024-01-19T05:31:33.764Z,-1.98
2024-01-19T05:32:35.990Z,-2.09
2024-01-19T05:33:40.357Z,-2.10
2024-01-19T05:34:44.901Z,-2.10
2024-01-19T05:35:47.248Z,-2.07
2024-01-19T05:36:49.560Z,-2.10
2024-01-19T05:37:51.785Z,-2.19
2024-01-19T05:38:54.096Z,-2.23
2024-01-19T05:39:56.442Z,-2.19
2024-01-19T05:41:02.360Z,-2.16
2024-01-19T05:42:04.902Z,-2.13
2024-01-19T05:43:07.140Z,-2.18
2024-01-19T05:44:09.715Z,-2.32
2024-01-19T05:45:11.920Z,-2.41
2024-01-19T05:46:17.267Z,-2.43
2024-01-19T05:47:19.510Z,-2.44
2024-01-19T05:48:23.285Z,-2.42
2024-01-19T05:49:25.666Z,-2.38
2024-01-19T05:50:28.049Z,-2.51
2024-01-19T05:51:30.265Z,-2.58
2024-01-19T05:52:32.654Z,-2.52
2024-01-19T05:53:34.946Z,-2.47
2024-01-19T05:54:37.313Z,-2.42
2024-01-19T05:55:41.191Z,-2.40
2024-01-19T05:56:43.502Z,-2.30
2024-01-19T05:57:45.892Z,-2.32
2024-01-19T05:58:48.119Z,-2.29
2024-01-19T05:59:50.469Z,-2.22
2024-01-19T06:00:52.890Z,-2.39
2024-01-19T06:01:55.250Z,-2.44
2024-01-19T06:02:57.727Z,-2.38
2024-01-19T06:04:00.392Z,-2.31
2024-01-19T06:05:02.787Z,-2.38
2024-01-19T06:06:06.047Z,-2.47
2024-01-19T06:07:08.571Z,-2.55
2024-01-19T06:08:10.844Z,-2.48
2024-01-19T06:09:13.205Z,-2.35
2024-01-19T06:10:15.513Z,-2.38
2024-01-19T06:11:17.733Z,-2.39
2024-01-19T06:12:20.051Z,-2.38
2024-01-19T06:13:22.284Z,-2.38
2024-01-19T06:14:24.724Z,-2.30
2024-01-19T06:15:26.980Z,-2.39
2024-01-19T06:16:29.969Z,-2.48
2024-01-19T06:17:32.238Z,-2.44
2024-01-19T06:18:37.377Z,-2.36
2024-01-19T06:19:42.117Z,-2.30
2024-01-19T06:20:44.547Z,-2.23
2024-01-19T06:21:47.342Z,-2.26
2024-01-19T06:22:49.750Z,-2.28
2024-01-19T06:23:52.011Z,-2.32
2024-01-19T06:24:55.258Z,-2.34
2024-01-19T06:25:57.608Z,-2.35
2024-01-19T06:26:59.978Z,-2.34
2024-01-19T06:28:02.369Z,-2.33
2024-01-19T06:29:04.641Z,-2.36
2024-01-19T06:30:07.814Z,-2.59
2024-01-19T06:31:11.268Z,-2.56
2024-01-19T06:32:14.232Z,-2.56
2024-01-19T06:33:16.622Z,-2.50
2024-01-19T06:34:19.210Z,-2.44
2024-01-19T06:35:21.931Z,-2.64
2024-01-19T06:36:26.375Z,-2.80
2024-01-19T06:37:29.867Z,-2.80
2024-01-19T06:38:32.177Z,-2.73
2024-01-19T06:39:34.512Z,-2.63
2024-01-19T06:40:36.722Z,-2.71
2024-01-19T06:41:45.812Z,-2.80
2024-01-19T06:42:48.261Z,-2.88
2024-01-19T06:43:50.590Z,-3.01
2024-01-19T06:44:52.862Z,-2.92
2024-01-19T06:45:55.257Z,-2.87
2024-01-19T06:46:57.633Z,-2.79
2024-01-19T06:48:00.122Z,-2.84
2024-01-19T06:49:02.501Z,-2.81
2024-01-19T06:50:05.163Z,-2.85
2024-01-19T06:51:07.530Z,-2.81
2024-01-19T06:52:09.757Z,-2.77
2024-01-19T06:53:11.968Z,-2.77
2024-01-19T06:54:14.355Z,-2.83
2024-01-19T06:55:16.828Z,-2.84
2024-01-19T06:56:19.051Z,-2.73
2024-01-19T06:57:21.924Z,-2.74
2024-01-19T06:58:24.143Z,-2.66
2024-01-19T06:59:26.691Z,-2.72
2024-01-19T07:00:29.083Z,-2.73
2024-01-19T07:01:31.475Z,-2.65
2024-01-19T07:02:33.824Z,-2.65
2024-01-19T07:03:36.225Z,-2.62
2024-01-19T07:04:38.631Z,-2.66
2024-01-19T07:05:43.680Z,-2.63
2024-01-19T07:06:46.523Z,-2.65
2024-01-19T07:07:48.872Z,-2.68
2024-01-19T07:08:51.164Z,-2.77
2024-01-19T07:09:53.469Z,-2.74
2024-01-19T07:10:55.636Z,-2.81
2024-01-19T07:11:57.963Z,-2.82
2024-01-19T07:13:00.174Z,-2.77
2024-01-19T07:14:02.902Z,-2.81
2024-01-19T07:15:07.433Z,-2.79
2024-01-19T07:16:09.772Z,-2.86
2024-01-19T07:17:15.303Z,-2.75
2024-01-19T07:18:18.792Z,-2.76
2024-01-19T07:19:21.218Z,-2.78
2024-01-19T07:20:23.557Z,-2.73
2024-01-19T07:21:25.908Z,-2.65
2024-01-19T07:22:28.872Z,-2.68
2024-01-19T07:23:31.966Z,-2.59
2024-01-19T07:24:36.430Z,-2.57
2024-01-19T07:25:39.367Z,-2.51
2024-01-19T07:26:43.009Z,-2.42
2024-01-19T07:27:45.323Z,-2.47
2024-01-19T07:28:47.575Z,-2.46
2024-01-19T07:29:49.986Z,-2.58
2024-01-19T07:30:52.285Z,-2.60
2024-01-19T07:31:55.914Z,-2.43
2024-01-19T07:33:06.528Z,-2.40
2024-01-19T07:34:11.684Z,-2.26
2024-01-19T07:35:14.354Z,-2.22
2024-01-19T07:36:17.095Z,-2.43
2024-01-19T07:37:19.472Z,-2.63
2024-01-19T07:38:21.718Z,-2.69
2024-01-19T07:39:27.489Z,-2.77
2024-01-19T07:40:29.926Z,-2.86
2024-01-19T07:41:32.245Z,-2.98
2024-01-19T07:42:34.578Z,-2.97
2024-01-19T07:43:37.422Z,-2.98
2024-01-19T07:44:39.838Z,-2.95
2024-01-19T07:45:42.103Z,-2.70
2024-01-19T07:46:45.703Z,-2.51
2024-01-19T07:47:48.338Z,-2.29
2024-01-19T07:49:53.853Z,-2.78
2024-01-19T07:50:56.105Z,-2.71
2024-01-19T07:51:58.348Z,-2.59
2024-01-19T07:53:00.626Z,-2.35
2024-01-19T07:54:03.050Z,-2.16
2024-01-19T07:55:05.883Z,-2.11
2024-01-19T07:56:08.133Z,-2.05
2024-01-19T07:57:11.140Z,-2.05
2024-01-19T07:58:13.490Z,-2.15
2024-01-19T07:59:15.810Z,-2.11
2024-01-19T08:00:20.547Z,-1.99
2024-01-19T08:01:22.996Z,-1.97
2024-01-19T08:02:26.316Z,-1.89
2024-01-19T08:03:28.650Z,-1.60
2024-01-19T08:04:33.713Z,-1.79
2024-01-19T08:05:36.069Z,-2.02
2024-01-19T08:06:39.425Z,-2.14
2024-01-19T08:07:41.950Z,-2.28
2024-01-19T08:08:44.293Z,-2.33
2024-01-19T08:09:46.512Z,-2.40
2024-01-19T08:10:48.846Z,-2.50
2024-01-19T08:11:51.298Z,-2.59
2024-01-19T08:12:56.181Z,-2.56
2024-01-19T08:13:58.394Z,-2.39
2024-01-19T08:15:00.946Z,-2.43
2024-01-19T08:16:03.513Z,-2.29
2024-01-19T08:17:06.142Z,-2.33
2024-01-19T08:18:08.648Z,-2.26
2024-01-19T08:19:11.428Z,-2.15
2024-01-19T08:20:13.886Z,-2.25
2024-01-19T08:21:19.237Z,-2.00
2024-01-19T08:22:21.687Z,-1.95
2024-01-19T08:23:24.309Z,-1.75
2024-01-19T08:24:27.452Z,-1.82
2024-01-19T08:25:29.735Z,-1.59
2024-01-19T08:26:32.365Z,-1.65
2024-01-19T08:27:34.747Z,-1.76
2024-01-19T08:28:36.986Z,-1.76
2024-01-19T08:29:40.449Z,-1.54
2024-01-19T08:30:43.549Z,-1.41
2024-01-19T08:31:45.931Z,-1.51
2024-01-19T08:32:48.688Z,-1.68
2024-01-19T08:33:51.401Z,-1.67
2024-01-19T08:34:54.105Z,-1.53
2024-01-19T08:35:56.963Z,-1.55
2024-01-19T08:36:59.440Z,-1.41
2024-01-19T08:38:01.746Z,-1.13
2024-01-19T08:39:04.724Z,-1.13
2024-01-19T08:40:11.960Z,-0.95
2024-01-19T08:41:14.223Z,-0.80
2024-01-19T08:42:16.861Z,-0.71
2024-01-19T08:43:19.377Z,-0.51
2024-01-19T08:44:22.839Z,-0.39
2024-01-19T08:45:25.281Z,-0.24
2024-01-19T08:46:27.510Z,-0.06
2024-01-19T08:47:29.941Z,-0.00
2024-01-19T08:48:32.651Z,-0.09
2024-01-19T08:49:35.027Z,-0.28
2024-01-19T08:50:37.641Z,-0.36
2024-01-19T08:51:40.442Z,-0.35
2024-01-19T08:52:43.184Z,-0.84
2024-01-19T08:53:45.707Z,-1.19
2024-01-19T08:54:48.361Z,-1.21
2024-01-19T08:55:50.713Z,-1.11
2024-01-19T08:56:57.980Z,-1.16
2024-01-19T08:58:01.206Z,-1.23
2024-01-19T08:59:03.694Z,-1.10
2024-01-19T09:00:06.849Z,-0.67
2024-01-19T09:01:16.285Z,-0.34
2024-01-19T09:02:18.668Z,-0.29
2024-01-19T09:03:24.057Z,-0.22
2024-01-19T09:04:26.518Z,0.06
2024-01-19T09:05:29.187Z,0.30
2024-01-19T09:06:32.045Z,0.55
2024-01-19T09:07:34.450Z,0.52
2024-01-19T09:08:36.868Z,0.48
2024-01-19T09:09:39.321Z,0.51
2024-01-19T09:10:41.578Z,1.13
2024-01-19T09:11:44.076Z,1.24
2024-01-19T09:12:46.391Z,1.18
2024-01-19T09:13:48.566Z,1.58
2024-01-19T09:14:52.888Z,1.38
2024-01-19T09:15:55.133Z,1.44
2024-01-19T09:16:57.335Z,1.08
2024-01-19T09:17:59.633Z,1.18
2024-01-19T09:19:02.977Z,1.46
2024-01-19T09:20:06.157Z,1.87
2024-01-19T09:21:08.834Z,2.12
2024-01-19T09:22:11.103Z,2.17
2024-01-19T09:23:13.388Z,1.97
2024-01-19T09:24:15.564Z,2.15
2024-01-19T09:25:17.912Z,2.15
2024-01-19T09:26:20.905Z,2.32
2024-01-19T09:27:23.152Z,2.40
2024-01-19T09:28:25.393Z,2.14
2024-01-19T09:29:27.735Z,2.28
2024-01-19T09:30:30.042Z,2.23
2024-01-19T09:31:32.288Z,2.84
2024-01-19T09:32:34.653Z,2.96
2024-01-19T09:33:37.146Z,3.05
2024-01-19T09:34:41.888Z,2.94
2024-01-19T09:35:44.320Z,2.95
2024-01-19T09:36:46.614Z,2.68
2024-01-19T09:37:48.938Z,2.93
2024-01-19T09:38:51.226Z,2.62
2024-01-19T09:39:53.479Z,2.46
2024-01-19T09:41:12.031Z,1.98
2024-01-19T09:42:28.176Z,1.71
2024-01-19T09:43:34.559Z,1.52
2024-01-19T09:44:37.879Z,1.47
2024-01-19T09:45:44.857Z,1.57
2024-01-19T09:46:52.990Z,1.80
2024-01-19T09:48:16.656Z,1.93
2024-01-19T09:49:24.770Z,1.70
2024-01-19T09:50:31.826Z,1.72
2024-01-19T09:51:52.572Z,1.98
2024-01-19T09:53:00.099Z,2.33
2024-01-19T09:54:06.311Z,2.28
2024-01-19T09:55:11.045Z,1.93
2024-01-19T09:56:13.636Z,1.80
2024-01-19T09:57:15.867Z,1.74
2024-01-19T09:58:21.812Z,1.78
2024-01-19T09:59:24.513Z,1.45
2024-01-19T10:00:28.337Z,1.62
2024-01-19T10:01:31.108Z,1.51
2024-01-19T10:02:34.624Z,1.70
2024-01-19T10:03:37.449Z,1.67
2024-01-19T10:04:39.857Z,1.50
2024-01-19T10:05:42.380Z,2.08
2024-01-19T10:06:45.407Z,1.69
2024-01-19T10:07:56.323Z,1.14
2024-01-19T10:08:59.081Z,1.21
2024-01-19T10:10:02.387Z,1.42
2024-01-19T10:11:06.250Z,1.53
2024-01-19T10:12:08.733Z,1.83
2024-01-19T10:13:11.747Z,1.64
2024-01-19T10:14:14.344Z,1.98
2024-01-19T10:15:17.793Z,2.13
2024-01-19T10:16:20.024Z,1.95
2024-01-19T10:17:23.030Z,1.59
2024-01-19T10:18:25.795Z,1.66
2024-01-19T10:19:29.070Z,1.65
2024-01-19T10:20:31.752Z,1.28
2024-01-19T10:21:34.374Z,1.76
2024-01-19T10:22:36.708Z,1.32
2024-01-19T10:23:43.024Z,1.45
2024-01-19T10:24:59.702Z,1.94
2024-01-19T10:26:15.861Z,2.36
2024-01-19T10:27:18.196Z,1.91
2024-01-19T10:28:31.346Z,1.90
2024-01-19T10:29:33.669Z,2.23
2024-01-19T10:30:38.432Z,2.11
2024-01-19T10:31:42.465Z,1.61
2024-01-19T10:32:47.283Z,2.12
2024-01-19T10:33:54.384Z,2.23
2024-01-19T10:35:20.406Z,2.29
2024-01-19T10:36:22.793Z,1.87
2024-01-19T10:37:25.095Z,1.67
2024-01-19T10:38:27.593Z,1.77
2024-01-19T10:39:30.475Z,1.77
2024-01-19T10:40:37.210Z,2.23
2024-01-19T10:41:39.499Z,2.30
2024-01-19T10:42:42.913Z,2.27
2024-01-19T10:43:45.539Z,1.92
2024-01-19T10:44:47.781Z,1.53
2024-01-19T10:45:50.100Z,1.38
2024-01-19T10:46:57.313Z,1.68
2024-01-19T10:48:01.993Z,1.87
2024-01-19T10:49:05.405Z,1.72
2024-01-19T10:50:09.436Z,1.79
2024-01-19T10:51:11.748Z,2.07
2024-01-19T10:52:16.139Z,2.14
2024-01-19T10:53:18.483Z,1.84
2024-01-19T10:54:26.187Z,1.92
2024-01-19T10:55:30.731Z,1.44
2024-01-19T10:56:33.075Z,1.41
2024-01-19T10:57:35.406Z,1.30
2024-01-19T10:58:37.675Z,1.21
2024-01-19T10:59:40.206Z,1.49
2024-01-19T11:00:43.046Z,1.56
2024-01-19T11:01:57.109Z,1.32
2024-01-19T11:03:01.968Z,1.26
2024-01-19T11:04:06.720Z,1.10
2024-01-19T11:05:09.139Z,1.43
2024-01-19T11:06:12.190Z,1.53
2024-01-19T11:07:14.621Z,1.56
2024-01-19T11:08:19.446Z,1.34
2024-01-19T11:09:21.981Z,1.46
2024-01-19T11:10:26.645Z,1.66
2024-01-19T11:11:31.563Z,1.38
2024-01-19T11:12:38.674Z,1.15
2024-01-19T11:13:44.703Z,1.35
2024-01-19T11:14:52.571Z,1.07
2024-01-19T11:15:59.712Z,0.64
2024-01-19T11:17:01.969Z,0.65
2024-01-19T11:18:06.905Z,0.99
2024-01-19T11:19:09.927Z,1.27
2024-01-19T11:20:12.381Z,1.11
2024-01-19T11:21:16.441Z,0.80
2024-01-19T11:22:19.067Z,0.96
2024-01-19T11:23:21.692Z,0.98
2024-01-19T11:24:27.208Z,1.39
2024-01-19T11:25:55.577Z,1.18
2024-01-19T11:27:06.444Z,1.58
2024-01-19T11:28:27.982Z,1.36
2024-01-19T11:29:36.361Z,1.57
2024-01-19T11:31:13.203Z,1.39
2024-01-19T11:32:16.074Z,1.61
2024-01-19T11:33:21.520Z,1.56
2024-01-19T11:34:46.403Z,1.16
2024-01-19T11:35:50.032Z,0.38
2024-01-19T11:36:52.564Z,0.78
2024-01-19T11:37:54.800Z,0.47
2024-01-19T11:38:57.718Z,0.58
2024-01-19T11:39:59.971Z,0.37
2024-01-19T11:41:02.214Z,0.28
2024-01-19T11:42:04.613Z,-0.15
2024-01-19T11:43:06.882Z,-0.04
2024-01-19T11:44:41.011Z,0.57
2024-01-19T11:45:44.099Z,0.99
2024-01-19T11:46:47.994Z,1.20
2024-01-19T11:47:50.300Z,1.38
2024-01-19T11:48:53.361Z,0.94
2024-01-19T11:49:56.055Z,0.20
2024-01-19T11:50:58.371Z,0.24
2024-01-19T11:52:04.805Z,0.04
2024-01-19T11:53:09.181Z,0.51
2024-01-19T11:54:12.438Z,0.49
2024-01-19T11:55:26.714Z,0.23
2024-01-19T11:56:29.555Z,0.11
2024-01-19T11:57:32.062Z,-0.06
2024-01-19T11:58:41.822Z,0.06
2024-01-19T11:59:44.885Z,0.08
2024-01-19T12:00:48.444Z,0.30
2024-01-19T12:01:50.988Z,0.77
2024-01-19T12:02:56.559Z,0.38
2024-01-19T12:03:59.929Z,0.56
2024-01-19T12:05:05.097Z,0.96
2024-01-19T12:06:07.885Z,1.30
2024-01-19T12:07:10.210Z,1.35
2024-01-19T12:08:13.075Z,1.30
2024-01-19T12:09:15.938Z,1.78
2024-01-19T12:10:21.601Z,1.76
2024-01-19T12:11:23.998Z,1.77
2024-01-19T12:12:27.321Z,1.09
2024-01-19T12:16:30.125Z,1.62
2024-01-19T12:17:33.110Z,1.71
2024-01-19T12:18:36.624Z,1.96
2024-01-19T12:19:38.883Z,1.83
2024-01-19T12:20:42.875Z,1.76
2024-01-19T12:21:45.244Z,1.56
2024-01-19T12:22:53.826Z,1.10
2024-01-19T12:23:58.509Z,1.30
2024-01-19T12:25:16.566Z,1.28
2024-01-19T12:26:25.188Z,1.04
2024-01-19T12:27:27.591Z,0.92
2024-01-19T12:28:30.241Z,0.85
2024-01-19T12:29:32.801Z,1.15
2024-01-19T12:30:36.780Z,1.27
2024-01-19T12:31:39.420Z,0.87
2024-01-19T12:32:41.956Z,1.03
2024-01-19T12:33:44.257Z,1.25
2024-01-19T12:35:12.925Z,0.67
2024-01-19T12:36:18.774Z,1.00
2024-01-19T12:37:21.040Z,1.00
2024-01-19T12:38:23.216Z,0.95
2024-01-19T12:39:25.487Z,1.27
2024-01-19T12:40:28.037Z,1.36
2024-01-19T12:41:31.471Z,1.04
2024-01-19T12:42:37.854Z,1.16
2024-01-19T12:43:40.237Z,1.06
2024-01-19T12:44:43.143Z,0.57
2024-01-19T12:45:45.505Z,0.49
2024-01-19T12:46:49.487Z,0.73
2024-01-19T12:47:51.904Z,0.44
2024-01-19T12:48:59.243Z,0.56
2024-01-19T12:50:06.047Z,0.64
2024-01-19T12:51:14.126Z,0.64
2024-01-19T12:52:16.458Z,0.73
2024-01-19T12:53:18.726Z,1.01
2024-01-19T12:54:20.993Z,0.87
2024-01-19T12:55:33.554Z,0.54
2024-01-19T12:56:36.035Z,0.67
2024-01-19T12:57:39.022Z,0.46
2024-01-19T12:58:41.327Z,0.71
2024-01-19T12:59:43.595Z,0.48
2024-01-19T13:00:45.991Z,0.68
2024-01-19T13:01:51.162Z,0.66
2024-01-19T13:02:59.167Z,0.48
2024-01-19T13:04:01.587Z,0.50
2024-01-19T13:05:04.290Z,0.27
2024-01-19T13:06:06.784Z,0.48
2024-01-19T13:07:09.043Z,0.52
2024-01-19T13:08:12.769Z,0.51
2024-01-19T13:09:23.246Z,0.28
2024-01-19T13:10:25.688Z,0.55
2024-01-19T13:11:28.075Z,0.61
2024-01-19T13:12:31.009Z,0.94
2024-01-19T13:13:33.512Z,1.05
2024-01-19T13:14:35.951Z,0.95
2024-01-19T13:15:38.311Z,0.99
2024-01-19T13:17:00.061Z,1.33
2024-01-19T13:18:11.961Z,1.53
2024-01-19T13:19:15.758Z,1.50
2024-01-19T13:20:25.722Z,1.35
2024-01-19T13:21:28.316Z,1.52
2024-01-19T13:22:30.895Z,1.49
2024-01-19T13:23:33.245Z,1.29
2024-01-19T13:24:38.943Z,1.41
2024-01-19T13:25:41.356Z,1.62
2024-01-19T13:26:43.776Z,1.47
2024-01-19T13:27:46.793Z,1.01
2024-01-19T13:28:49.369Z,0.81
2024-01-19T13:29:51.899Z,1.10
2024-01-19T13:30:54.390Z,1.16
2024-01-19T13:31:58.270Z,1.14
2024-01-19T13:33:03.769Z,0.94
2024-01-19T13:34:06.180Z,0.73
2024-01-19T13:35:09.917Z,0.42
2024-01-19T13:36:14.389Z,0.73
2024-01-19T13:37:16.944Z,0.70
2024-01-19T13:38:24.378Z,0.60
2024-01-19T13:39:28.174Z,0.62
2024-01-19T13:40:30.574Z,0.71
2024-01-19T13:41:32.884Z,0.77
2024-01-19T13:42:35.491Z,0.69
2024-01-19T13:43:40.992Z,0.61
2024-01-19T13:44:43.272Z,0.79
2024-01-19T13:45:45.527Z,0.76
2024-01-19T13:46:47.828Z,0.76
2024-01-19T13:47:50.267Z,1.03
2024-01-19T13:48:52.742Z,0.93
2024-01-19T13:49:55.180Z,0.62
2024-01-19T13:50:58.487Z,0.49
2024-01-19T13:52:00.817Z,0.85
2024-01-19T13:53:03.109Z,0.65
2024-01-19T13:54:05.443Z,0.83
2024-01-19T13:55:09.546Z,1.10
2024-01-19T13:56:12.218Z,1.23